Time;durP1;ratioP1;P1;durP2;ratioP2;P2;SDS_P1;SDS_P2;PMS_P1;PMS_P2;Temp;Humidity;BMP_temperature;BMP_pressure;BME280_temperature;BME280_humidity;BME280_pressure;Samples;Min_cycle;Max_cycle;Signal;HPM_P1;HPM_P2
2021/01/25 00:01:45;;;;;;;6.27;4.57;;;0.70;99.90;;;;;;5024577;28;20968;-77
2021/01/25 00:04:11;;;;;;;7.33;4.73;;;0.70;99.90;;;;;;5029533;28;20774;-77
2021/01/25 00:06:36;;;;;;;5.60;4.93;;;0.70;99.90;;;;;;5028904;28;20205;-77
2021/01/25 00:09:02;;;;;;;7.30;4.30;;;0.70;99.90;;;;;;5028291;28;20212;-76
2021/01/25 00:11:27;;;;;;;5.70;4.57;;;0.70;99.90;;;;;;5025699;28;20205;-76
2021/01/25 00:13:53;;;;;;;4.77;3.70;;;0.80;99.90;;;;;;5025096;28;20471;-77
2021/01/25 00:16:18;;;;;;;6.20;4.03;;;0.80;99.90;;;;;;5029359;28;20205;-76
2021/01/25 00:18:44;;;;;;;4.30;3.90;;;0.90;99.90;;;;;;5026314;28;20208;-76
2021/01/25 00:21:09;;;;;;;5.70;3.73;;;0.90;99.90;;;;;;5025384;28;20190;-77
2021/01/25 00:23:35;;;;;;;8.83;3.97;;;0.90;99.90;;;;;;5026418;28;20195;-77
2021/01/25 00:26:00;;;;;;;8.00;3.60;;;1.00;99.90;;;;;;5023882;28;20321;-77
2021/01/25 00:28:26;;;;;;;9.40;3.67;;;0.90;99.90;;;;;;5025347;28;20244;-76
2021/01/25 00:30:51;;;;;;;7.00;3.70;;;0.90;99.90;;;;;;5025469;28;20178;-77
2021/01/25 00:33:17;;;;;;;7.93;4.07;;;0.90;99.90;;;;;;5025978;28;20190;-77
2021/01/25 00:35:42;;;;;;;4.60;3.63;;;0.80;99.90;;;;;;5025904;28;20243;-76
2021/01/25 00:38:10;;;;;;;5.57;3.80;;;0.80;99.90;;;;;;5028076;28;20672;-77
2021/01/25 00:40:36;;;;;;;6.03;4.13;;;0.80;99.90;;;;;;5028343;28;20244;-77
2021/01/25 00:43:02;;;;;;;5.63;3.57;;;0.70;99.90;;;;;;5028962;28;20791;-77
2021/01/25 00:45:27;;;;;;;6.63;3.83;;;0.70;99.90;;;;;;5029397;28;20288;-76
2021/01/25 00:47:53;;;;;;;3.90;3.40;;;0.70;99.90;;;;;;5029363;28;20221;-77
2021/01/25 00:50:18;;;;;;;4.93;4.13;;;0.70;99.90;;;;;;5030150;28;20191;-77
2021/01/25 00:52:44;;;;;;;5.67;3.83;;;0.70;99.90;;;;;;5028962;28;20230;-77
2021/01/25 00:55:11;;;;;;;7.40;3.90;;;0.70;99.90;;;;;;5028683;28;20208;-77
2021/01/25 00:57:38;;;;;;;4.40;4.00;;;0.80;99.90;;;;;;5028866;28;20241;-77
2021/01/25 01:00:08;;;;;;;4.90;3.20;;;0.80;99.90;;;;;;5028948;28;20429;-77
2021/01/25 01:02:34;;;;;;;6.47;3.33;;;0.90;99.90;;;;;;5028733;28;20433;-77
2021/01/25 01:04:59;;;;;;;6.00;3.60;;;0.90;99.90;;;;;;5029165;28;20957;-76
2021/01/25 01:07:25;;;;;;;7.30;3.20;;;0.90;99.90;;;;;;5030769;28;20275;-77
2021/01/25 01:09:50;;;;;;;2.83;2.60;;;0.90;99.90;;;;;;5033616;28;20193;-77
2021/01/25 01:12:16;;;;;;;10.73;4.00;;;0.90;99.90;;;;;;5030243;28;20187;-77
2021/01/25 01:14:41;;;;;;;3.73;3.43;;;0.90;99.90;;;;;;5028301;28;20269;-77
2021/01/25 01:17:07;;;;;;;5.23;3.10;;;0.90;99.90;;;;;;5060530;28;20716;-77
2021/01/25 01:19:33;;;;;;;6.13;3.40;;;0.90;99.90;;;;;;5028717;28;20213;-77
2021/01/25 01:21:58;;;;;;;5.80;3.37;;;0.90;99.90;;;;;;5028431;28;20195;-77
2021/01/25 01:24:24;;;;;;;3.73;2.93;;;1.00;99.90;;;;;;5028840;28;20210;-77
2021/01/25 01:26:49;;;;;;;2.70;2.50;;;0.90;99.90;;;;;;5027971;28;20198;-77
2021/01/25 01:29:15;;;;;;;3.57;2.93;;;0.90;99.90;;;;;;5028364;28;20184;-77
2021/01/25 01:31:41;;;;;;;2.77;2.57;;;0.90;99.90;;;;;;5028459;28;20659;-77
2021/01/25 01:34:06;;;;;;;3.10;2.80;;;0.90;99.90;;;;;;5031705;28;20185;-77
2021/01/25 01:36:32;;;;;;;2.93;2.27;;;0.90;99.90;;;;;;5032857;28;20547;-77
2021/01/25 01:38:58;;;;;;;3.20;2.90;;;0.90;99.90;;;;;;5032871;28;20559;-77
2021/01/25 01:41:23;;;;;;;7.93;2.97;;;0.80;99.90;;;;;;5031429;28;20231;-77
2021/01/25 01:43:49;;;;;;;6.37;3.00;;;0.80;99.90;;;;;;5033317;28;20174;-77
2021/01/25 01:46:15;;;;;;;5.10;2.83;;;0.80;99.90;;;;;;5032769;28;20218;-76
2021/01/25 01:48:42;;;;;;;3.40;2.23;;;0.70;99.90;;;;;;5032605;28;20187;-77
2021/01/25 01:51:08;;;;;;;3.40;3.10;;;0.70;99.90;;;;;;5032436;28;20411;-77
2021/01/25 01:53:33;;;;;;;2.73;2.53;;;0.60;99.90;;;;;;5031535;28;20406;-77
2021/01/25 01:55:59;;;;;;;7.17;3.70;;;0.70;99.90;;;;;;5032739;28;20547;-77
2021/01/25 01:58:27;;;;;;;5.10;3.10;;;0.60;99.90;;;;;;5030715;28;20244;-77
2021/01/25 02:00:52;;;;;;;3.97;3.43;;;0.60;99.90;;;;;;5027707;28;20204;-76
2021/01/25 02:03:19;;;;;;;5.93;4.37;;;0.50;99.90;;;;;;5027953;28;20911;-77
2021/01/25 02:05:45;;;;;;;6.87;4.57;;;0.60;99.90;;;;;;5027531;28;20210;-77
2021/01/25 02:08:11;;;;;;;7.13;5.03;;;0.60;99.90;;;;;;5059336;28;20411;-77
2021/01/25 02:10:37;;;;;;;7.10;4.97;;;0.50;99.90;;;;;;5028097;28;20181;-77
2021/01/25 02:13:03;;;;;;;5.97;4.20;;;0.50;99.90;;;;;;5027725;28;20483;-77
2021/01/25 02:15:30;;;;;;;8.37;5.90;;;0.40;99.90;;;;;;5029758;28;20484;-77
2021/01/25 02:17:57;;;;;;;6.37;4.70;;;0.40;99.90;;;;;;5032421;28;20453;-77
2021/01/25 02:20:33;;;;;;;5.20;4.40;;;0.30;99.90;;;;;;5031930;28;20446;-77
2021/01/25 02:23:27;;;;;;;6.73;3.60;;;0.30;99.90;;;;;;5032257;28;20411;-77
2021/01/25 02:26:07;;;;;;;4.77;3.30;;;0.20;99.90;;;;;;4996911;28;20548;-77
2021/01/25 02:28:33;;;;;;;7.27;2.90;;;0.30;99.90;;;;;;5028657;28;20424;-77
2021/01/25 02:31:00;;;;;;;3.37;3.07;;;0.30;99.90;;;;;;5032244;28;20924;-77
2021/01/25 02:33:28;;;;;;;2.57;2.37;;;0.20;99.90;;;;;;5032029;28;20182;-77
2021/01/25 02:35:54;;;;;;;4.80;3.20;;;0.20;99.90;;;;;;5030935;28;20466;-76
2021/01/25 02:38:21;;;;;;;9.77;2.90;;;0.20;99.90;;;;;;5030936;28;20848;-77
2021/01/25 02:40:50;;;;;;;6.53;3.00;;;0.20;99.90;;;;;;5031734;28;20526;-76
2021/01/25 02:43:17;;;;;;;3.50;3.00;;;0.20;99.90;;;;;;5031464;28;20486;-77
2021/01/25 02:45:44;;;;;;;6.43;2.80;;;0.20;99.90;;;;;;5031267;28;20529;-77
2021/01/25 02:48:10;;;;;;;3.00;2.67;;;0.20;99.90;;;;;;5030148;28;20768;-77
2021/01/25 02:50:35;;;;;;;2.80;2.10;;;0.20;99.90;;;;;;5030469;28;20436;-77
2021/01/25 02:53:01;;;;;;;4.87;2.87;;;0.30;99.90;;;;;;5031449;28;20400;-77
2021/01/25 02:55:27;;;;;;;3.33;2.70;;;0.30;99.90;;;;;;5031367;28;20213;-77
2021/01/25 02:57:55;;;;;;;3.33;2.60;;;0.30;99.90;;;;;;5031715;28;20179;-77
2021/01/25 03:00:21;;;;;;;2.93;2.53;;;0.30;99.90;;;;;;5031242;28;20653;-77
2021/01/25 03:02:47;;;;;;;2.67;2.47;;;0.30;99.90;;;;;;5030544;28;20469;-77
2021/01/25 03:05:12;;;;;;;4.93;2.70;;;0.40;99.90;;;;;;5031372;28;20473;-77
2021/01/25 03:07:38;;;;;;;3.10;2.80;;;0.40;99.90;;;;;;5031155;28;20276;-77
2021/01/25 03:10:05;;;;;;;3.27;3.03;;;0.40;99.90;;;;;;5030280;28;20645;-77
2021/01/25 03:12:31;;;;;;;3.20;2.70;;;0.40;99.90;;;;;;5027121;28;20185;-77
2021/01/25 03:14:56;;;;;;;3.80;3.50;;;0.40;99.90;;;;;;5063045;28;20411;-77
2021/01/25 03:17:22;;;;;;;3.70;3.30;;;0.50;99.90;;;;;;5031374;28;20183;-77
2021/01/25 03:19:48;;;;;;;4.00;3.43;;;0.50;99.90;;;;;;5031100;28;20222;-77
2021/01/25 03:22:13;;;;;;;4.67;3.60;;;0.50;99.90;;;;;;5030988;28;20455;-77
2021/01/25 03:24:39;;;;;;;6.40;4.00;;;0.50;99.90;;;;;;5031027;28;20212;-77
2021/01/25 03:27:05;;;;;;;3.47;3.17;;;0.50;99.90;;;;;;5031152;28;20206;-77
2021/01/25 03:29:32;;;;;;;6.50;3.60;;;0.40;99.90;;;;;;5029521;28;20839;-77
2021/01/25 03:31:57;;;;;;;4.33;3.43;;;0.40;99.90;;;;;;5031022;28;20207;-77
2021/01/25 03:34:23;;;;;;;5.17;3.93;;;0.40;99.90;;;;;;5063301;28;20441;-76
2021/01/25 03:36:49;;;;;;;6.33;4.50;;;0.30;99.90;;;;;;5030629;28;20714;-76
2021/01/25 03:39:14;;;;;;;4.60;3.10;;;0.30;99.90;;;;;;5030876;28;20186;-76
2021/01/25 03:41:40;;;;;;;4.97;4.47;;;0.30;99.90;;;;;;5031171;28;20465;-76
2021/01/25 03:44:06;;;;;;;4.33;3.23;;;0.20;99.90;;;;;;5030385;28;20377;-76
2021/01/25 03:46:31;;;;;;;5.17;4.00;;;0.20;99.90;;;;;;5026862;28;20209;-77
2021/01/25 03:48:57;;;;;;;4.80;4.23;;;0.20;99.90;;;;;;5030490;28;20954;-77
2021/01/25 03:51:22;;;;;;;5.23;4.30;;;0.20;99.90;;;;;;5030643;28;20600;-76
2021/01/25 03:53:48;;;;;;;4.83;4.23;;;0.10;99.90;;;;;;5062852;28;20189;-76
2021/01/25 03:56:15;;;;;;;5.23;4.80;;;0.10;99.90;;;;;;5030131;28;20220;-76
2021/01/25 03:58:41;;;;;;;4.40;4.00;;;0.20;99.90;;;;;;5030542;28;20185;-76
2021/01/25 04:01:07;;;;;;;7.07;4.60;;;0.10;99.90;;;;;;5029644;28;20763;-76
2021/01/25 04:03:33;;;;;;;9.23;5.17;;;0.10;99.90;;;;;;5030574;28;20516;-76
2021/01/25 04:05:58;;;;;;;6.53;5.47;;;0.10;99.90;;;;;;5030213;28;20205;-76
2021/01/25 04:08:24;;;;;;;6.93;4.07;;;0.20;99.90;;;;;;5030491;28;20202;-76
2021/01/25 04:10:50;;;;;;;6.20;5.60;;;0.20;99.90;;;;;;5030510;28;20638;-76
2021/01/25 04:13:16;;;;;;;8.63;4.47;;;0.20;99.90;;;;;;5031059;28;20461;-76
2021/01/25 04:15:41;;;;;;;6.20;4.80;;;0.20;99.90;;;;;;5034900;28;20202;-75
2021/01/25 04:18:07;;;;;;;13.50;5.63;;;0.20;99.90;;;;;;5034744;28;20190;-76
2021/01/25 04:20:32;;;;;;;7.53;4.77;;;0.30;99.90;;;;;;5034656;28;20186;-76
2021/01/25 04:22:58;;;;;;;6.60;4.70;;;0.20;99.90;;;;;;5033876;28;20192;-76
2021/01/25 04:25:24;;;;;;;7.60;5.47;;;0.30;99.90;;;;;;5034313;28;20237;-76
2021/01/25 04:27:50;;;;;;;6.60;5.37;;;0.30;99.90;;;;;;5033050;28;20432;-76
2021/01/25 04:30:16;;;;;;;8.17;4.50;;;0.30;99.90;;;;;;5034755;28;20201;-76
2021/01/25 04:32:42;;;;;;;11.77;6.17;;;0.20;99.90;;;;;;5034337;28;20508;-76
2021/01/25 04:35:13;;;;;;;8.60;4.90;;;0.30;99.90;;;;;;5034263;28;20523;-76
2021/01/25 04:37:40;;;;;;;8.90;5.23;;;0.30;99.90;;;;;;5033952;28;20193;-76
2021/01/25 04:40:07;;;;;;;8.13;6.13;;;0.30;99.90;;;;;;5034521;28;20399;-76
2021/01/25 04:42:33;;;;;;;6.07;5.47;;;0.40;99.90;;;;;;5030289;28;20436;-76
2021/01/25 04:44:59;;;;;;;5.83;5.27;;;0.40;99.90;;;;;;5032590;28;20436;-76
2021/01/25 04:47:27;;;;;;;8.60;5.63;;;0.40;99.90;;;;;;5033994;28;20917;-76
2021/01/25 04:49:53;;;;;;;5.77;5.27;;;0.40;99.90;;;;;;5033971;28;20388;-76
2021/01/25 04:52:19;;;;;;;7.50;5.73;;;0.30;99.90;;;;;;5033859;28;20403;-76
2021/01/25 04:54:49;;;;;;;8.23;4.93;;;0.40;99.90;;;;;;5033796;28;20441;-76
2021/01/25 04:57:15;;;;;;;9.17;6.33;;;0.30;99.90;;;;;;5033712;28;20423;-76
2021/01/25 04:59:44;;;;;;;9.67;6.23;;;0.30;99.90;;;;;;5033437;28;20443;-76
2021/01/25 05:02:11;;;;;;;9.80;6.03;;;0.30;99.90;;;;;;5033818;28;20439;-76
2021/01/25 05:04:36;;;;;;;5.80;5.30;;;0.40;99.90;;;;;;5034034;28;20545;-76
2021/01/25 05:07:03;;;;;;;7.50;6.30;;;0.40;99.90;;;;;;5033617;28;20941;-76
2021/01/25 05:09:29;;;;;;;7.83;6.10;;;0.40;99.90;;;;;;5032336;28;20572;-76
2021/01/25 05:11:58;;;;;;;7.40;6.70;;;0.40;99.90;;;;;;5032326;28;20449;-76
2021/01/25 05:14:24;;;;;;;8.10;7.30;;;0.40;99.90;;;;;;5033590;28;20201;-76
2021/01/25 05:16:50;;;;;;;8.83;6.63;;;0.40;99.90;;;;;;5032911;28;20475;-76
2021/01/25 05:19:16;;;;;;;8.13;6.57;;;0.40;99.90;;;;;;5033428;28;20688;-76
2021/01/25 05:21:43;;;;;;;7.77;6.47;;;0.40;99.90;;;;;;5033505;28;20903;-76
2021/01/25 05:24:11;;;;;;;11.60;7.50;;;0.40;99.90;;;;;;5033184;28;20182;-76
2021/01/25 05:26:40;;;;;;;8.93;7.43;;;0.40;99.90;;;;;;5031101;28;20419;-76
2021/01/25 05:29:05;;;;;;;8.20;6.90;;;0.40;99.90;;;;;;5032210;28;20478;-76
2021/01/25 05:31:31;;;;;;;12.00;7.53;;;0.40;99.90;;;;;;5029079;28;20393;-76
2021/01/25 05:33:58;;;;;;;10.67;8.27;;;0.40;99.90;;;;;;5032903;28;20210;-76
2021/01/25 05:36:29;;;;;;;9.00;7.40;;;0.40;99.90;;;;;;5032566;28;20456;-76
2021/01/25 05:38:55;;;;;;;14.83;7.10;;;0.40;99.90;;;;;;5031625;28;20404;-76
2021/01/25 05:41:21;;;;;;;8.53;7.60;;;0.40;99.90;;;;;;5033311;28;20421;-76
2021/01/25 05:43:49;;;;;;;8.13;6.43;;;0.50;99.90;;;;;;5032634;28;20188;-76
2021/01/25 05:46:18;;;;;;;8.97;7.00;;;0.50;99.90;;;;;;5031581;28;20548;-76
2021/01/25 05:48:56;;;;;;;9.63;7.33;;;0.50;99.90;;;;;;5032619;28;20474;-76
2021/01/25 05:51:21;;;;;;;8.20;7.37;;;0.50;99.90;;;;;;5033142;28;20445;-76
2021/01/25 05:53:48;;;;;;;8.70;6.57;;;0.50;99.90;;;;;;5032519;28;20519;-76
2021/01/25 05:56:15;;;;;;;10.67;7.70;;;0.50;99.90;;;;;;5032518;28;20612;-76
2021/01/25 05:58:41;;;;;;;9.53;7.03;;;0.60;99.90;;;;;;5032540;28;20453;-76
2021/01/25 06:01:08;;;;;;;8.80;7.80;;;0.60;99.90;;;;;;5032757;28;20432;-76
2021/01/25 06:03:38;;;;;;;9.03;7.70;;;0.50;99.90;;;;;;5032816;28;20431;-76
2021/01/25 06:06:12;;;;;;;12.30;8.90;;;0.50;99.90;;;;;;5028626;28;20468;-76
2021/01/25 06:08:52;;;;;;;11.70;8.80;;;0.40;99.90;;;;;;5029437;28;20465;-76
2021/01/25 06:11:32;;;;;;;12.57;9.40;;;0.40;99.90;;;;;;5031323;28;20409;-76
2021/01/25 06:14:09;;;;;;;13.87;8.90;;;0.50;99.90;;;;;;5032117;28;20427;-76
2021/01/25 06:16:35;;;;;;;10.73;7.57;;;0.50;99.90;;;;;;5028839;28;20461;-75
2021/01/25 06:19:09;;;;;;;11.30;8.20;;;0.50;99.90;;;;;;5032332;28;20396;-76
2021/01/25 06:21:39;;;;;;;10.47;8.43;;;0.40;99.90;;;;;;5028399;28;20179;-76
2021/01/25 06:24:07;;;;;;;13.10;9.13;;;0.40;99.90;;;;;;5030365;28;20461;-76
2021/01/25 06:26:34;;;;;;;11.73;9.07;;;0.40;99.90;;;;;;5026807;28;20497;-76
2021/01/25 06:29:05;;;;;;;10.70;7.13;;;0.50;99.90;;;;;;5029980;28;20415;-76
2021/01/25 06:31:39;;;;;;;10.33;7.27;;;0.50;99.90;;;;;;5031019;28;20513;-76
2021/01/25 06:34:10;;;;;;;12.23;8.60;;;0.50;99.90;;;;;;5030390;28;20453;-76
2021/01/25 06:36:41;;;;;;;8.90;8.00;;;0.50;99.90;;;;;;5026003;28;20456;-76
2021/01/25 06:39:08;;;;;;;10.57;8.30;;;0.50;99.90;;;;;;5030944;28;20438;-75
2021/01/25 06:41:41;;;;;;;9.10;8.20;;;0.40;99.90;;;;;;5031889;28;20406;-76
2021/01/25 06:44:11;;;;;;;11.87;8.03;;;0.40;99.90;;;;;;5030668;28;20437;-76
2021/01/25 06:46:39;;;;;;;15.20;9.53;;;0.50;99.90;;;;;;5031412;28;20456;-76
2021/01/25 06:49:09;;;;;;;10.93;8.70;;;0.50;99.90;;;;;;5031411;28;20524;-76
2021/01/25 06:51:44;;;;;;;12.63;9.13;;;0.50;99.90;;;;;;5027694;28;20456;-76
2021/01/25 06:54:12;;;;;;;14.53;9.20;;;0.50;99.90;;;;;;5025775;28;20904;-76
2021/01/25 06:56:58;;;;;;;10.50;7.90;;;0.50;99.90;;;;;;5030236;28;20851;-76
2021/01/25 06:59:30;;;;;;;12.50;7.83;;;0.50;99.90;;;;;;5029902;28;20433;-76
2021/01/25 07:01:56;;;;;;;10.07;8.10;;;0.50;99.90;;;;;;5030442;28;20482;-73
2021/01/25 07:04:24;;;;;;;12.20;8.07;;;0.50;99.90;;;;;;5030769;28;20481;-73
2021/01/25 07:06:53;;;;;;;17.73;9.73;;;0.50;99.90;;;;;;5029440;28;20442;-74
2021/01/25 07:09:33;;;;;;;8.57;7.70;;;0.50;99.90;;;;;;5031280;28;20444;-73
2021/01/25 07:12:03;;;;;;;13.53;9.03;;;0.50;99.90;;;;;;5030649;28;20790;-73
2021/01/25 07:14:33;;;;;;;11.80;8.13;;;0.50;99.90;;;;;;5030981;28;20421;-73
2021/01/25 07:17:00;;;;;;;13.80;8.27;;;0.60;99.90;;;;;;5030740;28;20451;-73
2021/01/25 07:19:26;;;;;;;12.57;7.27;;;0.60;99.90;;;;;;5030854;28;20773;-73
2021/01/25 07:21:53;;;;;;;9.87;7.93;;;0.60;99.90;;;;;;5028364;28;20504;-72
2021/01/25 07:24:24;;;;;;;10.20;8.37;;;0.60;99.90;;;;;;5030501;28;20421;-74
2021/01/25 07:26:57;;;;;;;7.80;6.90;;;0.60;99.90;;;;;;5029248;28;20972;-73
2021/01/25 07:29:23;;;;;;;10.73;8.00;;;0.60;99.90;;;;;;5030642;28;20404;-73
2021/01/25 07:31:51;;;;;;;13.43;7.97;;;0.60;99.90;;;;;;5030796;28;21019;-72
2021/01/25 07:34:17;;;;;;;12.73;8.67;;;0.60;99.90;;;;;;5030611;28;20456;-73
2021/01/25 07:36:43;;;;;;;15.67;8.10;;;0.60;99.90;;;;;;5030423;28;20425;-74
2021/01/25 07:39:10;;;;;;;13.53;8.30;;;0.60;99.90;;;;;;5030746;28;20426;-73
2021/01/25 07:41:37;;;;;;;14.47;8.17;;;0.70;99.90;;;;;;5030937;28;20423;-73
2021/01/25 07:44:05;;;;;;;9.87;7.07;;;0.70;99.90;;;;;;5026666;28;20425;-73
2021/01/25 07:46:31;;;;;;;12.80;8.03;;;0.80;99.90;;;;;;5030747;28;20533;-73
2021/01/25 07:48:57;;;;;;;10.57;7.70;;;0.80;99.90;;;;;;5030068;28;20508;-73
2021/01/25 07:51:27;;;;;;;10.30;7.33;;;0.80;99.90;;;;;;5030908;28;20470;-74
2021/01/25 07:53:54;;;;;;;11.60;7.00;;;0.90;99.90;;;;;;5030560;28;20201;-73
2021/01/25 07:56:25;;;;;;;10.70;7.40;;;0.90;99.90;;;;;;5030503;28;20449;-73
2021/01/25 07:59:16;;;;;;;13.43;8.27;;;1.00;99.90;;;;;;5030695;28;20436;-73
2021/01/25 08:01:59;;;;;;;8.83;7.77;;;1.00;99.90;;;;;;5026851;28;20438;-73
2021/01/25 08:04:28;;;;;;;9.40;7.30;;;1.00;99.90;;;;;;5030586;28;20428;-73
2021/01/25 08:06:58;;;;;;;18.10;10.40;;;1.00;99.90;;;;;;5030497;28;20442;-73
2021/01/25 08:09:24;;;;;;;15.73;7.73;;;1.10;99.90;;;;;;5030633;28;20730;-73
2021/01/25 08:11:50;;;;;;;7.70;6.57;;;1.10;99.90;;;;;;5030090;28;20413;-73
2021/01/25 08:14:35;;;;;;;7.53;6.70;;;1.10;99.90;;;;;;5030585;28;20515;-74
2021/01/25 08:17:16;;;;;;;7.10;6.17;;;1.20;99.90;;;;;;5030288;28;20449;-73
2021/01/25 08:19:52;;;;;;;7.47;5.40;;;1.20;99.90;;;;;;5059780;28;20422;-73
2021/01/25 08:22:22;;;;;;;5.80;4.90;;;1.20;99.90;;;;;;5030521;28;20952;-73
2021/01/25 08:25:00;;;;;;;6.33;5.50;;;1.20;99.90;;;;;;5029470;28;20503;-72
2021/01/25 08:27:26;;;;;;;6.87;5.10;;;1.30;99.90;;;;;;5030459;28;20452;-72
2021/01/25 08:30:02;;;;;;;6.57;5.90;;;1.30;99.90;;;;;;5030359;28;20398;-72
2021/01/25 08:32:38;;;;;;;7.40;5.40;;;1.30;99.90;;;;;;5029277;28;20422;-72
2021/01/25 08:35:06;;;;;;;8.57;6.17;;;1.30;99.90;;;;;;5024422;28;20559;-73
2021/01/25 08:37:34;;;;;;;8.57;5.50;;;1.30;99.90;;;;;;5030127;28;20407;-74
2021/01/25 08:40:20;;;;;;;8.73;5.00;;;1.40;99.90;;;;;;5030153;28;20627;-72
2021/01/25 08:42:46;;;;;;;6.50;4.47;;;1.40;99.90;;;;;;5028139;28;20401;-72
2021/01/25 08:45:31;;;;;;;8.83;5.30;;;1.40;99.90;;;;;;5029937;28;20477;-74
2021/01/25 08:48:09;;;;;;;5.33;4.80;;;1.40;99.90;;;;;;5029921;28;20419;-73
2021/01/25 08:50:36;;;;;;;8.63;4.30;;;1.40;99.90;;;;;;5026547;28;20424;-73
2021/01/25 08:53:04;;;;;;;5.23;3.50;;;1.40;99.90;;;;;;5026052;28;20501;-72
2021/01/25 08:55:39;;;;;;;3.50;3.23;;;1.50;99.90;;;;;;5029852;28;20442;-72
2021/01/25 08:58:37;;;;;;;4.07;3.70;;;1.50;99.90;;;;;;5026564;28;20427;-73
2021/01/25 09:01:20;;;;;;;7.77;3.40;;;1.50;99.90;;;;;;4977797;28;20428;-73
2021/01/25 09:03:46;;;;;;;5.97;4.00;;;1.50;99.90;;;;;;5031519;28;21034;-72
2021/01/25 09:06:12;;;;;;;10.43;4.20;;;1.50;99.90;;;;;;5032228;28;20462;-72
2021/01/25 09:08:38;;;;;;;12.83;4.37;;;1.50;99.90;;;;;;5033753;28;20210;-73
2021/01/25 09:11:04;;;;;;;4.70;4.27;;;1.50;99.90;;;;;;5032860;28;20176;-72
2021/01/25 09:13:30;;;;;;;8.47;4.97;;;1.50;99.90;;;;;;5033385;28;20753;-72
2021/01/25 09:15:56;;;;;;;5.53;5.10;;;1.60;99.90;;;;;;5033094;28;20425;-72
2021/01/25 09:18:21;;;;;;;7.53;5.43;;;1.60;99.90;;;;;;5033318;28;20659;-73
2021/01/25 09:20:47;;;;;;;7.70;5.13;;;1.60;99.90;;;;;;5033148;28;20184;-72
2021/01/25 09:23:12;;;;;;;9.33;5.20;;;1.70;99.90;;;;;;5033558;28;20181;-73
2021/01/25 09:25:38;;;;;;;5.53;5.00;;;1.70;99.90;;;;;;5032947;28;20355;-72
2021/01/25 09:28:03;;;;;;;10.20;5.03;;;1.70;99.90;;;;;;5032805;28;20279;-72
2021/01/25 09:30:30;;;;;;;5.40;4.60;;;1.80;99.90;;;;;;5027646;28;20319;-72
2021/01/25 09:32:56;;;;;;;5.20;4.03;;;1.80;99.90;;;;;;5033408;28;20171;-72
2021/01/25 09:35:22;;;;;;;7.17;5.60;;;1.80;99.90;;;;;;5032780;28;20428;-72
2021/01/25 09:37:48;;;;;;;5.10;4.60;;;1.80;99.90;;;;;;5032823;28;20440;-72
2021/01/25 09:40:15;;;;;;;8.20;6.10;;;1.80;99.90;;;;;;5031188;28;20792;-72
2021/01/25 09:42:41;;;;;;;5.30;4.90;;;1.90;99.90;;;;;;5031659;28;20549;-72
2021/01/25 09:45:08;;;;;;;7.67;6.10;;;1.90;99.90;;;;;;5032636;28;20447;-72
2021/01/25 09:47:34;;;;;;;8.23;5.20;;;2.00;99.90;;;;;;5029073;28;20175;-72
2021/01/25 09:49:59;;;;;;;8.47;5.27;;;2.00;99.90;;;;;;5032619;28;20976;-72
2021/01/25 09:52:25;;;;;;;5.30;4.80;;;2.10;99.90;;;;;;5032592;28;20182;-72
2021/01/25 09:54:51;;;;;;;7.43;4.80;;;2.10;99.90;;;;;;5030637;28;20178;-72
2021/01/25 09:57:16;;;;;;;12.23;4.93;;;2.20;99.90;;;;;;5031606;28;20514;-75
2021/01/25 09:59:42;;;;;;;9.27;4.70;;;2.30;99.90;;;;;;5031774;28;20214;-73
2021/01/25 10:02:07;;;;;;;7.07;6.37;;;2.40;99.90;;;;;;5032805;28;20647;-73
2021/01/25 10:04:33;;;;;;;7.57;4.73;;;2.40;99.90;;;;;;5032841;28;20188;-72
2021/01/25 10:06:58;;;;;;;6.63;4.67;;;2.60;99.90;;;;;;5032372;28;20195;-72
2021/01/25 10:09:24;;;;;;;9.83;7.13;;;2.70;99.90;;;;;;5032702;28;20187;-72
2021/01/25 10:11:50;;;;;;;7.67;4.60;;;2.70;99.90;;;;;;5032200;28;20554;-72
2021/01/25 10:14:15;;;;;;;5.43;4.20;;;2.70;99.90;;;;;;5032595;28;20190;-73
2021/01/25 10:16:41;;;;;;;5.13;3.77;;;2.80;99.90;;;;;;5032325;28;20304;-73
2021/01/25 10:19:06;;;;;;;3.93;2.50;;;2.90;99.90;;;;;;5031884;28;20196;-72
2021/01/25 10:21:32;;;;;;;9.83;5.23;;;2.90;99.90;;;;;;5032092;28;20183;-73
2021/01/25 10:23:57;;;;;;;7.67;3.90;;;2.90;99.90;;;;;;5029177;28;20189;-72
2021/01/25 10:26:23;;;;;;;9.73;4.20;;;2.90;99.90;;;;;;5031009;28;20226;-72
2021/01/25 10:28:49;;;;;;;6.60;4.60;;;2.90;99.90;;;;;;5032350;28;20179;-71
2021/01/25 10:31:15;;;;;;;17.73;12.70;;;3.00;99.90;;;;;;5031742;28;20178;-71
2021/01/25 10:33:40;;;;;;;8.60;6.87;;;3.10;99.90;;;;;;5063038;28;20487;-73
2021/01/25 10:36:06;;;;;;;7.70;6.90;;;3.00;99.90;;;;;;5031464;28;20221;-72
2021/01/25 10:38:32;;;;;;;10.10;6.00;;;3.00;99.90;;;;;;5032069;28;20179;-72
2021/01/25 10:40:58;;;;;;;9.03;5.23;;;3.10;99.90;;;;;;5031819;28;20222;-72
2021/01/25 10:43:23;;;;;;;8.93;5.90;;;3.00;99.90;;;;;;5031833;28;20492;-72
2021/01/25 10:45:49;;;;;;;8.53;6.30;;;3.10;99.90;;;;;;5031594;28;20293;-71
2021/01/25 10:48:14;;;;;;;7.30;5.90;;;3.00;99.90;;;;;;5031540;28;20591;-71
2021/01/25 10:50:40;;;;;;;9.67;7.60;;;2.90;99.90;;;;;;5030290;28;20183;-72
2021/01/25 10:53:05;;;;;;;13.37;5.50;;;2.90;99.90;;;;;;5031883;28;20217;-71
2021/01/25 10:55:31;;;;;;;15.70;5.40;;;3.00;99.90;;;;;;5031538;28;20747;-72
2021/01/25 10:57:56;;;;;;;6.10;5.60;;;2.90;99.90;;;;;;5031308;28;21259;-72
2021/01/25 11:00:24;;;;;;;4.80;4.40;;;3.00;99.90;;;;;;5029906;28;20669;-71
2021/01/25 11:02:50;;;;;;;4.33;3.93;;;3.00;99.90;;;;;;5032423;28;20179;-71
2021/01/25 11:05:19;;;;;;;5.67;4.90;;;3.10;99.90;;;;;;5029955;28;20520;-71
2021/01/25 11:07:45;;;;;;;4.43;4.03;;;3.10;99.90;;;;;;5028824;28;20423;-72
2021/01/25 11:10:14;;;;;;;5.53;4.17;;;3.30;99.90;;;;;;5030797;28;20823;-71
2021/01/25 11:12:40;;;;;;;5.30;4.27;;;3.50;99.90;;;;;;5031584;28;20226;-72
2021/01/25 11:15:07;;;;;;;4.20;3.90;;;3.70;99.90;;;;;;5031021;28;20834;-71
2021/01/25 11:17:32;;;;;;;10.87;3.40;;;3.80;99.90;;;;;;5027226;28;20177;-72
2021/01/25 11:19:58;;;;;;;4.80;3.67;;;3.80;99.90;;;;;;5030766;28;20445;-72
2021/01/25 11:22:24;;;;;;;5.67;4.00;;;3.90;99.90;;;;;;5031268;28;20438;-72
2021/01/25 11:24:49;;;;;;;4.90;3.40;;;4.00;99.90;;;;;;5030001;28;20689;-71
2021/01/25 11:27:17;;;;;;;3.83;3.53;;;4.00;99.90;;;;;;5030914;28;20263;-72
2021/01/25 11:29:42;;;;;;;5.77;3.47;;;3.90;99.90;;;;;;5030756;28;20805;-73
2021/01/25 11:32:08;;;;;;;5.53;3.37;;;3.90;99.90;;;;;;5029867;28;20421;-71
2021/01/25 11:34:33;;;;;;;3.90;2.60;;;3.90;99.90;;;;;;5031070;28;20193;-72
2021/01/25 11:36:59;;;;;;;4.83;2.80;;;3.80;99.90;;;;;;5062612;28;20302;-72
2021/01/25 11:39:27;;;;;;;4.97;3.20;;;3.90;99.90;;;;;;5030707;28;20207;-72
2021/01/25 11:41:52;;;;;;;5.33;3.20;;;4.00;99.90;;;;;;5031244;28;20658;-72
2021/01/25 11:44:18;;;;;;;3.33;3.13;;;4.10;99.90;;;;;;5030472;28;20463;-72
2021/01/25 11:46:44;;;;;;;3.50;2.57;;;4.10;99.90;;;;;;5029826;28;20244;-72
2021/01/25 11:49:10;;;;;;;5.53;2.10;;;4.20;99.90;;;;;;5029517;28;20184;-73
2021/01/25 11:51:35;;;;;;;6.27;2.07;;;4.20;99.90;;;;;;5028617;28;20182;-72
2021/01/25 11:54:01;;;;;;;1.23;1.10;;;4.20;99.90;;;;;;5030692;28;20424;-72
2021/01/25 11:56:27;;;;;;;2.33;1.37;;;4.20;99.90;;;;;;5030807;28;20207;-72
2021/01/25 11:58:52;;;;;;;2.67;1.00;;;4.20;99.90;;;;;;5030529;28;20196;-72
2021/01/25 12:01:18;;;;;;;1.53;1.07;;;4.20;99.90;;;;;;5030954;28;20225;-71
2021/01/25 12:03:43;;;;;;;1.43;1.00;;;4.50;99.90;;;;;;5030660;28;20179;-72
2021/01/25 12:06:09;;;;;;;1.80;0.80;;;4.50;99.90;;;;;;5029041;28;20693;-71
2021/01/25 12:08:35;;;;;;;0.63;0.63;;;4.70;99.90;;;;;;5030893;28;20204;-72
2021/01/25 12:11:02;;;;;;;2.30;1.07;;;4.70;99.90;;;;;;5030418;28;20180;-72
2021/01/25 12:13:28;;;;;;;2.60;0.60;;;4.60;99.90;;;;;;5030682;28;20439;-72
2021/01/25 12:15:53;;;;;;;2.10;0.50;;;4.50;99.90;;;;;;5028837;28;20534;-72
2021/01/25 12:18:19;;;;;;;0.60;0.50;;;4.50;99.90;;;;;;5030217;28;20179;-72
2021/01/25 12:20:44;;;;;;;0.60;0.60;;;4.50;99.90;;;;;;5030044;28;20546;-72
2021/01/25 12:23:10;;;;;;;0.70;0.60;;;4.40;99.90;;;;;;5030380;28;20184;-72
2021/01/25 12:25:35;;;;;;;0.60;0.53;;;4.40;99.90;;;;;;5030301;28;20325;-73
2021/01/25 12:28:01;;;;;;;0.70;0.70;;;4.40;99.90;;;;;;5029912;28;20243;-73
2021/01/25 12:30:26;;;;;;;0.87;0.87;;;4.40;99.90;;;;;;5030566;28;20676;-73
2021/01/25 12:32:52;;;;;;;3.90;0.70;;;4.50;99.90;;;;;;5030473;28;20175;-73
2021/01/25 12:35:19;;;;;;;0.50;0.50;;;4.60;99.90;;;;;;5033026;28;20227;-73
2021/01/25 12:37:46;;;;;;;0.60;0.60;;;4.60;99.90;;;;;;5034051;28;20429;-72
2021/01/25 12:40:13;;;;;;;1.97;0.67;;;4.60;99.90;;;;;;5034328;28;20881;-73
2021/01/25 12:42:39;;;;;;;0.50;0.50;;;4.60;99.90;;;;;;5034391;28;20804;-72
2021/01/25 12:45:06;;;;;;;0.50;0.50;;;4.60;99.90;;;;;;5033788;28;20569;-74
2021/01/25 12:47:32;;;;;;;1.23;0.40;;;4.40;99.90;;;;;;5033574;28;20415;-73
2021/01/25 12:49:57;;;;;;;0.47;0.47;;;4.40;99.90;;;;;;5033401;28;20525;-72
2021/01/25 12:52:23;;;;;;;4.30;0.40;;;4.20;99.90;;;;;;5034153;28;20315;-73
2021/01/25 12:54:48;;;;;;;0.83;0.57;;;4.20;99.90;;;;;;5033431;28;20228;-73
2021/01/25 12:57:15;;;;;;;2.10;0.50;;;4.10;99.90;;;;;;5033320;28;20678;-72